Time;durP1;ratioP1;P1;durP2;ratioP2;P2;SDS_P1;SDS_P2;PMS_P1;PMS_P2;Temp;Humidity;BMP_temperature;BMP_pressure;BME280_temperature;BME280_humidity;BME280_pressure;Samples;Min_cycle;Max_cycle;Signal;HPM_P1;HPM_P2
2021/04/19 00:01:47;;;;;;;43.90;18.90;;;9.30;99.90;;;;;;4877809;29;20193;-86
2021/04/19 00:04:12;;;;;;;56.37;23.73;;;9.30;99.90;;;;;;4878602;29;20190;-86
2021/04/19 00:06:41;;;;;;;69.73;29.03;;;9.30;99.90;;;;;;4879000;29;20239;-88
2021/04/19 00:09:07;;;;;;;51.07;23.53;;;9.20;99.90;;;;;;4878587;29;20190;-87
2021/04/19 00:11:34;;;;;;;38.27;19.93;;;9.30;99.90;;;;;;4878859;29;20209;-86
2021/04/19 00:14:00;;;;;;;35.80;19.53;;;9.20;99.90;;;;;;4878761;29;20189;-86
2021/04/19 00:16:25;;;;;;;28.83;16.43;;;9.20;99.90;;;;;;4878801;29;20182;-86
2021/04/19 00:18:51;;;;;;;37.07;18.43;;;9.20;99.90;;;;;;4877390;29;20660;-86
2021/04/19 00:21:17;;;;;;;37.53;18.43;;;9.20;99.90;;;;;;4878575;29;20198;-86
2021/04/19 00:23:42;;;;;;;26.60;15.90;;;9.20;99.90;;;;;;4878959;29;20186;-87
2021/04/19 00:26:08;;;;;;;26.00;14.47;;;9.20;99.90;;;;;;4878494;29;20550;-85
2021/04/19 00:28:34;;;;;;;23.23;14.33;;;9.20;99.90;;;;;;4878650;29;20722;-87
2021/04/19 00:30:59;;;;;;;26.23;14.40;;;9.20;99.90;;;;;;4892979;29;20237;-83
2021/04/19 00:33:25;;;;;;;31.67;15.20;;;9.20;99.90;;;;;;4878978;29;20269;-87
2021/04/19 00:35:51;;;;;;;24.83;14.17;;;9.20;99.90;;;;;;4878947;29;20186;-87
2021/04/19 00:38:17;;;;;;;25.83;14.10;;;9.20;99.90;;;;;;4878406;29;20301;-87
2021/04/19 00:40:44;;;;;;;21.80;13.40;;;9.10;99.90;;;;;;4893406;29;20218;-86
2021/04/19 00:43:10;;;;;;;20.73;13.27;;;9.20;99.90;;;;;;4895645;29;20237;-87
2021/04/19 00:45:38;;;;;;;21.00;13.63;;;9.20;99.90;;;;;;4885036;29;20185;-87
2021/04/19 00:48:04;;;;;;;23.93;15.57;;;9.20;99.90;;;;;;4905375;29;20229;-84
2021/04/19 00:50:33;;;;;;;28.53;16.07;;;9.20;99.90;;;;;;4904610;29;20182;-86
2021/04/19 00:53:04;;;;;;;28.13;18.23;;;9.20;99.90;;;;;;4889895;29;20224;-87
2021/04/19 00:55:30;;;;;;;33.50;18.37;;;9.20;99.90;;;;;;4896457;29;20246;-87
2021/04/19 00:57:55;;;;;;;50.70;21.70;;;9.20;99.90;;;;;;4896337;29;20197;-87
2021/04/19 01:00:28;;;;;;;65.73;25.60;;;9.20;99.90;;;;;;4880314;29;20217;-87
2021/04/19 01:02:54;;;;;;;116.07;39.20;;;9.20;99.90;;;;;;4881758;29;20224;-87
2021/04/19 01:05:28;;;;;;;91.93;31.43;;;9.20;99.90;;;;;;4895824;29;20186;-87
2021/04/19 01:07:53;;;;;;;106.13;36.80;;;9.20;99.90;;;;;;4881385;29;20186;-86
2021/04/19 01:10:20;;;;;;;111.90;37.23;;;9.20;99.90;;;;;;4881425;29;20186;-87
2021/04/19 01:12:46;;;;;;;87.57;29.37;;;9.20;99.90;;;;;;4881721;29;20512;-87
2021/04/19 01:15:14;;;;;;;76.13;29.17;;;9.20;99.90;;;;;;4880212;29;20241;-86
2021/04/19 01:17:41;;;;;;;74.23;27.83;;;9.10;99.90;;;;;;4881619;29;20205;-86
2021/04/19 01:20:09;;;;;;;67.73;24.70;;;9.10;99.90;;;;;;4879730;29;20569;-86
2021/04/19 01:22:38;;;;;;;44.60;20.63;;;9.10;99.90;;;;;;4879866;29;20189;-86
2021/04/19 01:25:09;;;;;;;49.07;20.97;;;9.00;99.90;;;;;;4881778;29;20604;-86
2021/04/19 01:27:35;;;;;;;78.90;28.80;;;9.00;99.90;;;;;;4896023;29;20210;-86
2021/04/19 01:30:02;;;;;;;83.90;30.97;;;8.90;99.90;;;;;;4881039;29;20238;-87
2021/04/19 01:32:28;;;;;;;56.33;21.87;;;8.90;99.90;;;;;;4880917;29;20186;-86
2021/04/19 01:34:54;;;;;;;50.57;21.43;;;8.80;99.90;;;;;;4881301;29;20197;-88
2021/04/19 01:37:20;;;;;;;38.63;18.93;;;8.80;99.90;;;;;;4894953;29;20644;-86
2021/04/19 01:39:45;;;;;;;26.00;14.43;;;8.70;99.90;;;;;;4895435;29;20300;-87
2021/04/19 01:42:11;;;;;;;19.33;11.50;;;8.70;99.90;;;;;;4895191;29;20190;-86
2021/04/19 01:44:37;;;;;;;24.00;12.73;;;8.60;99.90;;;;;;4879839;29;20288;-87
2021/04/19 01:47:03;;;;;;;17.10;11.47;;;8.60;99.90;;;;;;4880988;29;20193;-87
2021/04/19 01:49:30;;;;;;;21.80;12.40;;;8.60;99.90;;;;;;4894899;29;20277;-86
2021/04/19 01:51:57;;;;;;;25.03;12.77;;;8.60;99.90;;;;;;4880784;29;20523;-87
2021/04/19 01:54:23;;;;;;;21.57;12.27;;;8.60;99.90;;;;;;4878765;29;20604;-87
2021/04/19 01:56:48;;;;;;;19.57;12.77;;;8.60;99.90;;;;;;4880936;29;20201;-87
2021/04/19 01:59:14;;;;;;;19.73;12.17;;;8.60;99.90;;;;;;4880497;29;20209;-87
2021/04/19 02:02:04;;;;;;;21.37;13.10;;;8.50;99.90;;;;;;4881173;29;20242;-87
2021/04/19 02:05:09;;;;;;;23.07;13.73;;;8.50;99.90;;;;;;4880223;29;20261;-89
2021/04/19 02:08:04;;;;;;;18.23;13.03;;;8.50;99.90;;;;;;4866196;29;20193;-87
2021/04/19 02:10:49;;;;;;;23.40;15.07;;;8.50;99.90;;;;;;4875971;29;20722;-86
2021/04/19 02:13:37;;;;;;;21.10;14.00;;;8.40;99.90;;;;;;4880297;29;20178;-87
2021/04/19 02:16:28;;;;;;;21.63;15.47;;;8.40;99.90;;;;;;4880853;29;20750;-87
2021/04/19 02:19:03;;;;;;;25.50;15.60;;;8.40;99.90;;;;;;4880291;29;20257;-87
2021/04/19 02:21:50;;;;;;;32.67;17.83;;;8.40;99.90;;;;;;4878902;29;20185;-87
2021/04/19 02:24:21;;;;;;;24.20;17.23;;;8.40;99.90;;;;;;4880006;29;20174;-87
2021/04/19 02:26:52;;;;;;;30.23;17.03;;;8.40;99.90;;;;;;4880150;29;20177;-88
2021/04/19 02:29:51;;;;;;;26.80;17.07;;;8.40;99.90;;;;;;4879483;29;20181;-87
2021/04/19 02:32:21;;;;;;;30.37;17.00;;;8.40;99.90;;;;;;4874302;29;20201;-87
2021/04/19 02:34:50;;;;;;;26.03;16.23;;;8.40;99.90;;;;;;4880051;29;20240;-87
2021/04/19 02:37:17;;;;;;;26.37;16.90;;;8.30;99.90;;;;;;4879416;29;20735;-87
2021/04/19 02:39:46;;;;;;;26.97;16.67;;;8.30;99.90;;;;;;4894178;29;20703;-88
2021/04/19 02:42:13;;;;;;;27.83;17.07;;;8.30;99.90;;;;;;4879986;29;20194;-84
2021/04/19 02:44:41;;;;;;;29.20;17.13;;;8.30;99.90;;;;;;4880172;29;20178;-87
2021/04/19 02:47:07;;;;;;;25.43;17.00;;;8.20;99.90;;;;;;4879927;29;20265;-87
2021/04/19 02:49:35;;;;;;;27.37;16.83;;;8.20;99.90;;;;;;4879530;29;21103;-87
2021/04/19 02:52:03;;;;;;;27.60;17.40;;;8.20;99.90;;;;;;4879677;29;20288;-86
2021/04/19 02:54:32;;;;;;;29.77;18.03;;;8.20;99.90;;;;;;4880054;29;20190;-86
2021/04/19 02:56:58;;;;;;;33.47;18.50;;;8.20;99.90;;;;;;4879980;29;20690;-87
2021/04/19 02:59:25;;;;;;;27.43;18.13;;;8.10;99.90;;;;;;4879676;29;20209;-86
2021/04/19 03:01:57;;;;;;;30.27;17.53;;;8.10;99.90;;;;;;4893840;29;20186;-87
2021/04/19 03:04:31;;;;;;;29.73;18.27;;;8.10;99.90;;;;;;4878142;29;20190;-86
2021/04/19 03:07:00;;;;;;;31.00;17.00;;;8.10;99.90;;;;;;4877731;29;20189;-87
2021/04/19 03:09:27;;;;;;;29.10;18.80;;;8.00;99.90;;;;;;4879608;29;20196;-87
2021/04/19 03:11:57;;;;;;;27.87;18.00;;;8.00;99.90;;;;;;4878513;29;20246;-87
2021/04/19 03:14:28;;;;;;;27.00;16.87;;;8.00;99.90;;;;;;4879268;29;20186;-86
2021/04/19 03:17:10;;;;;;;27.07;18.20;;;8.00;99.90;;;;;;4878557;29;20185;-87
2021/04/19 03:19:41;;;;;;;28.20;17.23;;;8.00;99.90;;;;;;4879445;29;20205;-87
2021/04/19 03:22:07;;;;;;;27.30;17.50;;;8.00;99.90;;;;;;4878480;29;20241;-87
2021/04/19 03:24:35;;;;;;;27.77;18.00;;;8.00;99.90;;;;;;4877820;29;20194;-86
2021/04/19 03:27:02;;;;;;;29.17;17.87;;;7.90;99.90;;;;;;4879493;29;20178;-87
2021/04/19 03:29:28;;;;;;;35.40;17.70;;;7.90;99.90;;;;;;4878618;29;20225;-88
2021/04/19 03:31:57;;;;;;;31.17;18.33;;;7.80;99.90;;;;;;4879234;29;20182;-86
2021/04/19 03:34:26;;;;;;;32.67;18.37;;;7.80;99.90;;;;;;4878997;29;20181;-89
2021/04/19 03:37:22;;;;;;;29.30;18.80;;;7.80;99.90;;;;;;4877891;29;20182;-87
2021/04/19 03:39:58;;;;;;;38.97;23.53;;;7.70;99.90;;;;;;4878270;29;20229;-86
2021/04/19 03:42:26;;;;;;;31.23;17.83;;;7.70;99.90;;;;;;4878707;29;20188;-87
2021/04/19 03:44:52;;;;;;;28.90;16.97;;;7.70;99.90;;;;;;4879141;29;20241;-87
2021/04/19 03:47:20;;;;;;;31.10;17.13;;;7.70;99.90;;;;;;4878930;29;20185;-87
2021/04/19 03:49:53;;;;;;;31.23;16.93;;;7.60;99.90;;;;;;4877897;29;20249;-87
2021/04/19 03:52:23;;;;;;;38.50;18.83;;;7.60;99.90;;;;;;4879195;29;20186;-87
2021/04/19 03:54:51;;;;;;;39.57;19.17;;;7.60;99.90;;;;;;4877616;29;20237;-86
2021/04/19 03:57:23;;;;;;;28.40;17.23;;;7.60;99.90;;;;;;4879345;29;20589;-86
2021/04/19 03:59:57;;;;;;;32.67;18.93;;;7.60;99.90;;;;;;4878877;29;20269;-86
2021/04/19 04:02:25;;;;;;;35.47;19.00;;;7.60;99.90;;;;;;4876596;29;20256;-87
2021/04/19 04:04:51;;;;;;;34.10;19.07;;;7.50;99.90;;;;;;4891643;29;20186;-85
2021/04/19 04:07:18;;;;;;;39.40;20.23;;;7.50;99.90;;;;;;4876189;29;20560;-86
2021/04/19 04:09:45;;;;;;;35.97;19.60;;;7.50;99.90;;;;;;4878374;29;20218;-86
2021/04/19 04:12:11;;;;;;;31.90;17.70;;;7.50;99.90;;;;;;4892550;29;20190;-86
2021/04/19 04:14:51;;;;;;;29.33;17.23;;;7.50;99.90;;;;;;4878674;29;20175;-86
2021/04/19 04:17:18;;;;;;;39.40;20.40;;;7.50;99.90;;;;;;4880200;29;20250;-86
2021/04/19 04:19:44;;;;;;;34.10;19.33;;;7.50;99.90;;;;;;4881995;29;20229;-86
2021/04/19 04:22:10;;;;;;;27.13;16.93;;;7.50;99.90;;;;;;4882712;29;20190;-86
2021/04/19 04:24:36;;;;;;;35.37;19.27;;;7.50;99.90;;;;;;4881030;29;20186;-86
2021/04/19 04:27:02;;;;;;;32.03;18.87;;;7.50;99.90;;;;;;4880815;29;20182;-85
2021/04/19 04:29:28;;;;;;;37.93;20.70;;;7.50;99.90;;;;;;4880017;29;20301;-86
2021/04/19 04:31:54;;;;;;;30.73;19.10;;;7.50;99.90;;;;;;4880322;29;20732;-86
2021/04/19 04:34:19;;;;;;;28.77;16.83;;;7.50;99.90;;;;;;4880735;29;20196;-86
2021/04/19 04:36:45;;;;;;;24.80;16.23;;;7.50;99.90;;;;;;4881023;29;20632;-86
2021/04/19 04:39:12;;;;;;;26.63;17.00;;;7.50;99.90;;;;;;4881380;29;20218;-87
2021/04/19 04:41:37;;;;;;;27.67;16.97;;;7.50;99.90;;;;;;4882208;29;20225;-87
2021/04/19 04:44:06;;;;;;;30.27;17.43;;;7.50;99.90;;;;;;4897038;29;20572;-87
2021/04/19 04:46:45;;;;;;;30.03;18.47;;;7.60;99.90;;;;;;4881644;29;20186;-87
2021/04/19 04:49:23;;;;;;;29.27;16.00;;;7.70;99.90;;;;;;4878170;29;20198;-87
2021/04/19 04:51:51;;;;;;;35.23;18.67;;;7.80;99.90;;;;;;4871759;29;20201;-87
2021/04/19 04:54:19;;;;;;;34.20;17.70;;;7.80;99.90;;;;;;4870569;29;20194;-86
2021/04/19 04:56:51;;;;;;;28.53;16.17;;;7.80;99.90;;;;;;4873360;29;20229;-86
2021/04/19 04:59:19;;;;;;;19.77;12.10;;;7.90;99.90;;;;;;4879091;29;20687;-86
2021/04/19 05:01:47;;;;;;;21.60;12.87;;;7.90;99.90;;;;;;4890109;29;20364;-85
2021/04/19 05:04:13;;;;;;;18.43;11.17;;;8.00;99.90;;;;;;4879232;29;20197;-86
2021/04/19 05:06:40;;;;;;;19.07;11.00;;;8.00;99.90;;;;;;4879465;29;20197;-86
2021/04/19 05:09:09;;;;;;;14.07;8.97;;;8.10;99.90;;;;;;4879907;29;20270;-86
2021/04/19 05:11:37;;;;;;;12.67;8.00;;;8.10;99.90;;;;;;4878856;29;20200;-86
2021/04/19 05:14:03;;;;;;;10.03;7.17;;;8.10;99.90;;;;;;4893539;29;20686;-87
2021/04/19 05:16:30;;;;;;;10.73;6.60;;;8.20;99.90;;;;;;4879091;29;20261;-88
2021/04/19 05:19:05;;;;;;;11.33;6.80;;;8.20;99.90;;;;;;4871538;29;20186;-86
2021/04/19 05:21:32;;;;;;;9.77;7.20;;;8.30;99.90;;;;;;4877292;29;20198;-87
2021/04/19 05:23:58;;;;;;;12.60;7.93;;;8.30;99.90;;;;;;4878103;29;20194;-86
2021/04/19 05:26:25;;;;;;;9.30;6.63;;;8.40;99.90;;;;;;4879101;29;20196;-87
2021/04/19 05:28:52;;;;;;;9.83;7.03;;;8.40;99.90;;;;;;4878051;29;20253;-86
2021/04/19 05:31:18;;;;;;;10.63;7.00;;;8.50;99.90;;;;;;4878593;29;20276;-89
2021/04/19 05:33:43;;;;;;;13.43;6.87;;;8.50;99.90;;;;;;4879845;29;20226;-86
2021/04/19 05:36:10;;;;;;;13.00;6.30;;;8.60;99.90;;;;;;4879732;29;20190;-87
2021/04/19 05:38:37;;;;;;;10.60;6.20;;;8.60;99.90;;;;;;4893865;29;20201;-89
2021/04/19 05:41:04;;;;;;;13.57;7.13;;;8.60;99.90;;;;;;4879236;29;20647;-86
2021/04/19 05:43:30;;;;;;;10.23;5.70;;;8.70;99.90;;;;;;4879700;29;20229;-86
2021/04/19 05:45:58;;;;;;;13.20;7.00;;;8.70;99.90;;;;;;4879689;29;20197;-87
2021/04/19 05:48:24;;;;;;;11.23;6.70;;;8.80;99.90;;;;;;4879099;29;20197;-88
2021/04/19 05:50:53;;;;;;;7.90;5.90;;;8.80;99.90;;;;;;4880364;29;20210;-86
2021/04/19 05:53:20;;;;;;;11.17;6.13;;;8.80;99.90;;;;;;4901384;29;20173;-86
2021/04/19 05:55:46;;;;;;;10.67;6.13;;;8.80;99.90;;;;;;4895001;29;20762;-88
2021/04/19 05:58:15;;;;;;;13.23;6.97;;;8.90;99.90;;;;;;4879794;29;20186;-89
2021/04/19 06:00:49;;;;;;;9.40;5.80;;;8.90;99.90;;;;;;4888520;29;20225;-86
2021/04/19 06:03:37;;;;;;;10.13;5.90;;;9.00;99.90;;;;;;4878544;29;20742;-88
2021/04/19 06:06:33;;;;;;;12.13;6.60;;;9.00;99.90;;;;;;4871888;29;20500;-88
2021/04/19 06:09:07;;;;;;;6.93;4.63;;;9.10;99.90;;;;;;4867192;29;20200;-87
2021/04/19 06:11:35;;;;;;;10.53;5.87;;;9.10;99.90;;;;;;4875869;29;20216;-86
2021/04/19 06:14:03;;;;;;;12.37;6.30;;;9.20;99.90;;;;;;4877404;29;20640;-85
2021/04/19 06:16:36;;;;;;;11.37;5.97;;;9.20;99.90;;;;;;4876862;29;20221;-89
2021/04/19 06:19:02;;;;;;;7.57;4.80;;;9.30;99.90;;;;;;4877732;29;20491;-89
2021/04/19 06:21:30;;;;;;;8.53;4.73;;;9.40;99.90;;;;;;4869886;29;20200;-88
2021/04/19 06:23:56;;;;;;;7.67;4.77;;;9.60;99.90;;;;;;4877296;29;20194;-87
2021/04/19 06:26:21;;;;;;;7.73;5.63;;;9.70;99.90;;;;;;4877609;29;20674;-86
2021/04/19 06:28:49;;;;;;;11.03;5.60;;;9.80;99.90;;;;;;4861839;29;20226;-86
2021/04/19 06:31:18;;;;;;;10.23;5.83;;;9.80;99.90;;;;;;4878413;29;20307;-88
2021/04/19 06:34:01;;;;;;;9.03;6.10;;;9.90;99.90;;;;;;4879979;29;20269;-89
2021/04/19 06:36:29;;;;;;;8.80;5.30;;;9.90;99.90;;;;;;4878985;29;20201;-88
2021/04/19 06:38:54;;;;;;;10.23;6.17;;;10.00;99.90;;;;;;4875727;29;20193;-89
2021/04/19 06:41:20;;;;;;;8.57;5.23;;;10.00;99.90;;;;;;4875219;29;20194;-91
2021/04/19 06:43:46;;;;;;;10.97;5.97;;;10.10;99.90;;;;;;4878691;29;20202;-90
2021/04/19 06:46:13;;;;;;;7.73;5.23;;;10.20;99.90;;;;;;4876882;29;20709;-91
2021/04/19 06:48:40;;;;;;;8.77;4.17;;;10.30;99.90;;;;;;4879773;29;20242;-89
2021/04/19 06:51:09;;;;;;;10.20;6.03;;;10.40;99.90;;;;;;4879381;29;20265;-91
2021/04/19 06:53:35;;;;;;;11.67;6.00;;;10.40;99.90;;;;;;4879384;29;20220;-90
2021/04/19 06:56:04;;;;;;;12.83;6.53;;;10.60;99.90;;;;;;4879215;29;20189;-89
2021/04/19 06:58:29;;;;;;;9.77;4.97;;;10.60;99.90;;;;;;4874839;29;20186;-88
2021/04/19 07:00:57;;;;;;;9.33;4.77;;;10.80;99.90;;;;;;4877492;29;20332;-88
2021/04/19 07:03:23;;;;;;;7.90;3.93;;;10.80;99.90;;;;;;4872783;29;20198;-88
2021/04/19 07:05:50;;;;;;;11.83;5.47;;;10.90;99.90;;;;;;4887048;29;20209;-88
2021/04/19 07:08:25;;;;;;;6.77;4.40;;;11.00;99.90;;;;;;4879471;29;20194;-88
2021/04/19 07:10:59;;;;;;;6.47;4.37;;;11.10;99.90;;;;;;4890855;29;20222;-89
2021/04/19 07:13:25;;;;;;;6.60;4.82;;;11.20;99.90;;;;;;4860021;29;20520;-89
2021/04/19 07:15:52;;;;;;;6.20;4.07;;;11.20;99.90;;;;;;4859784;29;20198;-88
2021/04/19 07:18:18;;;;;;;6.80;4.60;;;11.40;99.90;;;;;;4860988;29;20190;-88
2021/04/19 07:20:46;;;;;;;5.38;3.97;;;11.50;99.90;;;;;;4860747;29;20237;-89
2021/04/19 07:23:13;;;;;;;6.07;4.20;;;11.70;99.90;;;;;;4874859;29;20194;-89
2021/04/19 07:25:39;;;;;;;5.97;4.38;;;11.70;99.90;;;;;;4861056;29;20273;-88
2021/04/19 07:28:05;;;;;;;6.18;4.45;;;11.70;99.90;;;;;;4860749;29;20269;-88
2021/04/19 07:30:32;;;;;;;10.43;5.28;;;11.80;99.90;;;;;;4860552;29;20229;-86
2021/04/19 07:33:00;;;;;;;5.70;4.18;;;11.90;99.90;;;;;;4859529;29;20304;-89
2021/04/19 07:35:31;;;;;;;8.63;5.70;;;11.80;99.90;;;;;;4874584;29;20186;-87
2021/04/19 07:37:59;;;;;;;6.15;4.40;;;11.80;99.90;;;;;;4860490;29;20183;-88
2021/04/19 07:40:43;;;;;;;10.10;4.70;;;11.70;99.90;;;;;;4860827;29;20222;-86
2021/04/19 07:43:18;;;;;;;6.57;4.88;;;11.80;99.90;;;;;;4860652;29;20183;-87
2021/04/19 07:46:10;;;;;;;8.02;5.13;;;11.60;99.90;;;;;;4860707;29;20189;-87
2021/04/19 07:48:45;;;;;;;6.63;5.05;;;11.50;99.90;;;;;;4871894;29;20208;-88
2021/04/19 07:51:34;;;;;;;6.82;4.70;;;11.60;99.90;;;;;;4878060;29;20181;-86
2021/04/19 07:54:16;;;;;;;14.02;7.88;;;11.80;99.90;;;;;;4878003;29;20201;-88
2021/04/19 07:57:07;;;;;;;6.32;4.88;;;11.90;99.90;;;;;;4879117;29;20189;-85
2021/04/19 07:59:36;;;;;;;6.95;4.57;;;12.10;99.90;;;;;;4867232;29;20232;-93
2021/04/19 08:02:09;;;;;;;5.97;3.97;;;12.20;99.90;;;;;;4896071;29;20570;-90
2021/04/19 08:04:49;;;;;;;7.15;4.10;;;12.20;99.90;;;;;;4880811;29;20651;-91
2021/04/19 08:07:21;;;;;;;5.88;4.15;;;12.10;99.90;;;;;;4880931;29;20169;-93
2021/04/19 08:10:04;;;;;;;6.40;5.18;;;12.20;99.90;;;;;;4880678;29;20664;-89
2021/04/19 08:12:36;;;;;;;4.38;3.72;;;12.20;99.90;;;;;;4881182;29;20210;-89
2021/04/19 08:15:08;;;;;;;6.03;4.35;;;12.30;99.90;;;;;;4880551;29;20508;-92
2021/04/19 08:17:35;;;;;;;6.93;4.57;;;12.50;99.90;;;;;;4881551;29;20202;-91
2021/04/19 08:20:12;;;;;;;5.47;4.43;;;12.60;99.90;;;;;;4881214;29;20241;-92
2021/04/19 08:22:38;;;;;;;6.22;3.63;;;12.70;99.90;;;;;;4883000;29;20181;-92
2021/04/19 08:25:17;;;;;;;4.55;3.60;;;12.90;99.90;;;;;;4882290;29;20203;-91
2021/04/19 08:27:45;;;;;;;5.18;3.38;;;13.20;99.90;;;;;;4896827;29;20698;-92
2021/04/19 08:30:15;;;;;;;4.18;3.28;;;13.40;99.90;;;;;;4896305;29;20236;-93
2021/04/19 08:32:44;;;;;;;5.05;3.97;;;13.30;99.90;;;;;;4882320;29;20182;-92
2021/04/19 08:35:10;;;;;;;7.00;4.22;;;13.20;99.90;;;;;;4880912;29;20647;-90
2021/04/19 08:37:36;;;;;;;7.63;3.80;;;13.10;99.90;;;;;;4882438;29;20663;-92
2021/04/19 08:40:03;;;;;;;5.38;3.58;;;13.10;99.90;;;;;;4880720;29;20217;-92
2021/04/19 08:42:31;;;;;;;7.65;3.70;;;13.30;99.90;;;;;;4882150;29;20186;-92
2021/04/19 08:44:59;;;;;;;4.72;3.70;;;13.40;99.90;;;;;;4882039;29;20339;-92
2021/04/19 08:47:28;;;;;;;4.15;3.35;;;13.60;99.90;;;;;;4881701;29;20583;-93
2021/04/19 08:49:59;;;;;;;6.18;3.75;;;13.80;99.90;;;;;;4896080;29;20196;-93
2021/04/19 08:52:26;;;;;;;6.18;4.13;;;14.00;99.90;;;;;;4882528;29;20174;-93
2021/04/19 08:54:53;;;;;;;4.55;3.08;;;14.10;99.90;;;;;;4895713;29;20189;-93
2021/04/19 08:57:19;;;;;;;4.25;3.85;;;14.20;99.90;;;;;;4882185;29;20178;-92
2021/04/19 08:59:46;;;;;;;4.70;3.10;;;14.40;99.90;;;;;;4882222;29;20465;-92
2021/04/19 09:02:17;;;;;;;4.60;2.95;;;14.60;99.90;;;;;;4881402;29;20193;-93
2021/04/19 09:05:02;;;;;;;7.60;3.20;;;14.80;99.90;;;;;;4881976;29;20186;-94
2021/04/19 09:07:32;;;;;;;3.47;2.90;;;15.00;99.90;;;;;;4880260;29;20178;-92
2021/04/19 09:09:58;;;;;;;2.97;2.35;;;15.10;99.90;;;;;;4880967;29;20209;-94
2021/04/19 09:12:26;;;;;;;9.45;3.40;;;15.00;96.80;;;;;;4880624;29;20651;-92
2021/04/19 09:15:07;;;;;;;12.80;3.88;;;14.90;95.60;;;;;;4881825;29;20578;-91
2021/04/19 09:17:33;;;;;;;8.93;3.92;;;14.90;95.00;;;;;;4881537;29;20601;-91
2021/04/19 09:19:59;;;;;;;2.40;2.00;;;14.90;95.00;;;;;;4881246;29;20301;-90
2021/04/19 09:22:26;;;;;;;2.40;2.05;;;14.90;92.50;;;;;;4881421;29;20537;-92
2021/04/19 09:25:00;;;;;;;3.17;1.85;;;14.90;92.50;;;;;;4881580;29;20179;-92
2021/04/19 09:27:53;;;;;;;4.43;2.20;;;14.80;91.50;;;;;;4881621;29;20179;-90
2021/04/19 09:30:22;;;;;;;5.00;2.30;;;15.00;92.60;;;;;;4883235;29;20289;-91
2021/04/19 09:33:09;;;;;;;2.58;2.08;;;15.10;87.80;;;;;;4883730;29;20257;-91
2021/04/19 09:38:48;;;;;;;8.85;3.00;;;15.30;88.00;;;;;;4883789;29;20667;-91
2021/04/19 09:41:16;;;;;;;4.10;2.40;;;15.40;83.60;;;;;;4875424;29;20245;-90
2021/04/19 09:43:58;;;;;;;10.98;3.50;;;15.50;86.20;;;;;;4878148;29;20584;-90
2021/04/19 09:46:27;;;;;;;4.88;2.80;;;15.40;84.70;;;;;;4865997;29;20672;-90
2021/04/19 09:48:53;;;;;;;25.15;7.15;;;15.40;81.90;;;;;;4863973;29;20226;-91
2021/04/19 09:51:27;;;;;;;15.55;4.82;;;15.40;80.20;;;;;;4862106;29;20186;-90
2021/04/19 09:54:07;;;;;;;17.13;5.18;;;15.40;82.20;;;;;;4862407;29;20321;-89
2021/04/19 09:56:36;;;;;;;14.98;5.50;;;15.60;80.60;;;;;;4862394;29;20194;-87
2021/04/19 09:59:03;;;;;;;6.15;2.92;;;15.80;76.60;;;;;;4861574;29;20174;-91
2021/04/19 10:01:30;;;;;;;5.38;2.95;;;15.90;77.60;;;;;;4860948;29;20198;-89
2021/04/19 10:03:57;;;;;;;5.93;2.80;;;16.10;73.50;;;;;;4876855;29;20201;-86
2021/04/19 10:06:46;;;;;;;5.45;3.03;;;16.10;75.40;;;;;;4880729;29;20185;-89
2021/04/19 10:09:14;;;;;;;7.93;3.17;;;16.20;75.10;;;;;;4893863;29;20281;-85
2021/04/19 10:11:47;;;;;;;7.90;3.33;;;16.30;73.40;;;;;;4871292;29;20194;-87
2021/04/19 10:14:16;;;;;;;17.92;6.10;;;16.50;69.90;;;;;;4878427;29;20191;-87
2021/04/19 10:16:47;;;;;;;13.57;6.22;;;16.60;71.70;;;;;;4880433;29;20182;-87
2021/04/19 10:19:23;;;;;;;15.63;5.93;;;16.70;68.20;;;;;;4894677;29;20182;-86
2021/04/19 10:21:57;;;;;;;16.90;6.07;;;16.70;67.30;;;;;;4880134;29;20635;-87
2021/04/19 10:24:23;;;;;;;7.78;3.80;;;16.60;68.30;;;;;;4880338;29;20250;-87
2021/04/19 10:26:49;;;;;;;5.65;3.83;;;16.60;65.70;;;;;;4880150;29;20186;-86
2021/04/19 10:29:19;;;;;;;5.18;2.78;;;16.60;67.30;;;;;;4880500;29;20188;-86
2021/04/19 10:31:50;;;;;;;6.20;3.22;;;16.80;69.00;;;;;;4880885;29;20189;-88
2021/04/19 10:34:16;;;;;;;5.97;2.72;;;17.10;66.70;;;;;;4878262;29;20190;-88
2021/04/19 10:36:45;;;;;;;6.88;3.10;;;17.20;67.60;;;;;;4875678;29;20288;-88
2021/04/19 10:39:14;;;;;;;9.73;3.10;;;17.40;66.90;;;;;;4879350;29;20178;-88
2021/04/19 10:41:40;;;;;;;11.50;4.05;;;17.60;66.40;;;;;;4885944;29;20211;-88
2021/04/19 10:44:10;;;;;;;7.95;3.72;;;17.50;63.90;;;;;;4876590;29;20254;-89
2021/04/19 10:46:40;;;;;;;9.85;3.92;;;17.40;63.30;;;;;;4893779;29;20174;-86
2021/04/19 10:49:07;;;;;;;4.57;2.80;;;17.30;63.50;;;;;;4879387;29;20721;-87
2021/04/19 10:51:36;;;;;;;6.15;3.00;;;17.40;60.20;;;;;;4879328;29;20186;-87
2021/04/19 10:54:07;;;;;;;6.65;3.38;;;17.40;61.40;;;;;;4879631;29;20190;-88
2021/04/19 10:56:34;;;;;;;6.30;2.90;;;17.40;61.10;;;;;;4879313;29;20182;-86
2021/04/19 10:59:08;;;;;;;5.35;3.10;;;17.60;59.90;;;;;;4893555;29;20716;-87
2021/04/19 11:01:36;;;;;;;4.80;3.00;;;17.70;59.90;;;;;;4879241;29;20675;-85
2021/04/19 11:04:05;;;;;;;3.78;2.83;;;17.80;59.00;;;;;;4886754;29;20188;-86
2021/04/19 11:06:30;;;;;;;7.15;2.95;;;17.50;57.90;;;;;;4894600;29;20227;-86
2021/04/19 11:08:57;;;;;;;4.25;3.13;;;17.40;56.20;;;;;;4909593;29;20670;-85
2021/04/19 11:11:29;;;;;;;6.95;2.78;;;17.40;56.20;;;;;;4875009;29;20197;-83
2021/04/19 11:14:06;;;;;;;7.10;2.70;;;17.40;55.90;;;;;;4872927;29;20246;-87
2021/04/19 11:16:33;;;;;;;3.90;2.72;;;17.50;54.00;;;;;;4877434;29;20196;-84
2021/04/19 11:18:58;;;;;;;4.43;2.97;;;17.70;56.80;;;;;;4872534;29;20196;-85
2021/04/19 11:21:32;;;;;;;6.95;2.53;;;17.90;55.50;;;;;;4878520;29;20301;-85
2021/04/19 11:24:12;;;;;;;3.65;2.40;;;18.10;55.30;;;;;;4876725;29;20185;-85
2021/04/19 11:26:39;;;;;;;3.20;2.58;;;18.10;53.10;;;;;;4887612;29;20178;-88
2021/04/19 11:29:06;;;;;;;5.22;2.70;;;18.10;52.50;;;;;;4879175;29;20269;-88
2021/04/19 11:31:44;;;;;;;5.10;2.80;;;17.90;51.80;;;;;;4878867;29;20202;-87
2021/04/19 11:34:15;;;;;;;4.28;2.67;;;17.90;53.50;;;;;;4877724;29;20178;-86
2021/04/19 11:36:43;;;;;;;3.38;2.67;;;18.10;53.40;;;;;;4876537;29;20189;-89
2021/04/19 11:39:18;;;;;;;3.67;2.97;;;18.10;52.60;;;;;;4878470;29;20655;-84
2021/04/19 11:41:46;;;;;;;4.50;2.92;;;17.90;51.60;;;;;;4876904;29;20197;-87
2021/04/19 11:44:12;;;;;;;8.05;2.95;;;17.90;49.70;;;;;;4878540;29;20184;-86
2021/04/19 11:46:42;;;;;;;9.18;3.30;;;17.90;48.80;;;;;;4888380;29;20560;-86
2021/04/19 11:49:13;;;;;;;8.27;3.15;;;18.10;50.30;;;;;;4879404;29;20184;-84
2021/04/19 11:51:39;;;;;;;6.70;3.30;;;18.20;47.50;;;;;;4876272;29;20189;-86
2021/04/19 11:54:04;;;;;;;5.50;3.17;;;18.10;50.40;;;;;;4886986;29;20182;-86
2021/04/19 11:56:30;;;;;;;5.63;2.90;;;18.00;49.40;;;;;;4871780;29;20293;-87
2021/04/19 11:58:56;;;;;;;3.95;2.60;;;18.00;51.10;;;;;;4876300;29;20266;-86
2021/04/19 12:01:22;;;;;;;7.03;3.33;;;18.10;49.00;;;;;;4891718;29;20711;-87
2021/04/19 12:03:50;;;;;;;8.85;3.33;;;18.30;47.80;;;;;;4885567;29;20572;-87
2021/04/19 12:06:16;;;;;;;7.95;3.53;;;18.40;49.30;;;;;;4878211;29;20178;-88
2021/04/19 12:08:44;;;;;;;8.43;3.30;;;18.60;50.60;;;;;;4878858;29;20263;-87
2021/04/19 12:11:16;;;;;;;4.88;3.22;;;18.80;48.60;;;;;;4878779;29;20193;-88
2021/04/19 12:13:42;;;;;;;4.40;3.10;;;19.00;49.10;;;;;;4865671;29;20194;-87
2021/04/19 12:16:08;;;;;;;4.57;3.05;;;18.70;49.60;;;;;;4879195;29;20201;-87
2021/04/19 12:18:34;;;;;;;3.97;3.10;;;18.30;49.20;;;;;;4878474;29;20190;-84
2021/04/19 12:21:01;;;;;;;5.10;2.78;;;18.30;50.50;;;;;;4878803;29;20226;-85
2021/04/19 12:23:28;;;;;;;7.78;3.10;;;18.40;51.10;;;;;;4878466;29;20181;-85
2021/04/19 12:25:55;;;;;;;9.07;3.15;;;18.30;51.30;;;;;;4893106;29;20190;-84
2021/04/19 12:28:21;;;;;;;5.70;2.92;;;18.00;51.60;;;;;;4874277;29;20660;-84
2021/04/19 12:30:52;;;;;;;11.90;3.72;;;17.90;53.20;;;;;;4871010;29;20281;-89
2021/04/19 12:33:18;;;;;;;4.75;3.00;;;18.10;51.40;;;;;;4883105;29;20198;-86
2021/04/19 12:35:44;;;;;;;11.85;3.33;;;18.10;50.80;;;;;;4860351;29;20186;-85
2021/04/19 12:38:10;;;;;;;6.50;3.50;;;17.90;51.60;;;;;;4861859;29;20194;-84
2021/04/19 12:40:37;;;;;;;4.47;3.33;;;17.90;52.90;;;;;;4863867;29;20591;-86
2021/04/19 12:43:03;;;;;;;6.18;2.88;;;18.10;50.90;;;;;;4863857;29;20231;-85
2021/04/19 12:45:32;;;;;;;4.15;3.00;;;18.30;53.80;;;;;;4863838;29;20265;-85
2021/04/19 12:47:59;;;;;;;6.78;3.20;;;18.50;52.30;;;;;;4866206;29;20225;-90
2021/04/19 12:50:26;;;;;;;4.75;3.35;;;18.50;51.30;;;;;;4881037;29;20259;-85
2021/04/19 12:52:51;;;;;;;5.97;3.38;;;18.30;51.90;;;;;;4880884;29;20182;-86
2021/04/19 12:55:17;;;;;;;5.07;3.75;;;17.80;52.10;;;;;;4880393;29;20181;-86
2021/04/19 12:57:43;;;;;;;7.90;3.38;;;17.40;53.00;;;;;;4880008;29;20178;-86
2021/04/19 13:00:09;;;;;;;3.67;3.05;;;17.10;54.50;;;;;;4894525;29;20679;-85